sensor_id;sensor_type;location;lat;lon;timestamp;pressure;altitude;pressure_sealevel;temperature;humidity
61761;BME280;47664;51.660;-0.100;2023-03-03T00:00:43;102062.99;;;2.99;56.04
61761;BME280;47664;51.660;-0.100;2023-03-03T00:03:15;102060.42;;;3.87;54.93
61761;BME280;47664;51.660;-0.100;2023-03-03T00:05:47;102060.16;;;4.28;54.31
61761;BME280;47664;51.660;-0.100;2023-03-03T00:08:20;102061.15;;;3.98;54.66
61761;BME280;47664;51.660;-0.100;2023-03-03T00:10:52;102062.96;;;4.18;54.48
61761;BME280;47664;51.660;-0.100;2023-03-03T00:13:26;102058.64;;;4.43;53.90
61761;BME280;47664;51.660;-0.100;2023-03-03T00:16:09;102063.15;;;4.41;53.57
61761;BME280;47664;51.660;-0.100;2023-03-03T00:18:42;102073.42;;;4.13;55.03
61761;BME280;47664;51.660;-0.100;2023-03-03T00:21:22;102069.33;;;3.57;54.95
61761;BME280;47664;51.660;-0.100;2023-03-03T00:23:58;102072.63;;;4.35;54.00
61761;BME280;47664;51.660;-0.100;2023-03-03T00:26:36;102073.02;;;4.47;53.60
61761;BME280;47664;51.660;-0.100;2023-03-03T00:29:27;102077.54;;;4.52;53.79
61761;BME280;47664;51.660;-0.100;2023-03-03T00:32:15;102074.48;;;4.59;53.52
61761;BME280;47664;51.660;-0.100;2023-03-03T00:34:49;102077.12;;;4.83;52.91
61761;BME280;47664;51.660;-0.100;2023-03-03T00:37:26;102079.34;;;4.49;54.05
61761;BME280;47664;51.660;-0.100;2023-03-03T00:40:01;102079.75;;;4.16;54.36
61761;BME280;47664;51.660;-0.100;2023-03-03T00:42:40;102080.59;;;4.36;53.41
61761;BME280;47664;51.660;-0.100;2023-03-03T00:45:22;102074.13;;;4.01;53.54
61761;BME280;47664;51.660;-0.100;2023-03-03T00:47:55;102072.63;;;4.10;53.66
61761;BME280;47664;51.660;-0.100;2023-03-03T00:50:28;102076.21;;;4.19;53.69
61761;BME280;47664;51.660;-0.100;2023-03-03T00:53:01;102075.46;;;4.18;53.82
61761;BME280;47664;51.660;-0.100;2023-03-03T00:55:34;102078.79;;;4.35;53.77
61761;BME280;47664;51.660;-0.100;2023-03-03T00:58:07;102076.00;;;4.12;53.42
61761;BME280;47664;51.660;-0.100;2023-03-03T01:00:40;102076.68;;;4.38;53.60
61761;BME280;47664;51.660;-0.100;2023-03-03T01:03:14;102073.77;;;3.78;53.58
61761;BME280;47664;51.660;-0.100;2023-03-03T01:05:47;102076.69;;;4.58;52.93
61761;BME280;47664;51.660;-0.100;2023-03-03T01:08:20;102074.90;;;4.62;52.42
61761;BME280;47664;51.660;-0.100;2023-03-03T01:10:55;102074.48;;;4.76;51.76
61761;BME280;47664;51.660;-0.100;2023-03-03T01:13:29;102075.80;;;4.41;52.04
61761;BME280;47664;51.660;-0.100;2023-03-03T01:16:03;102077.43;;;4.88;51.74
61761;BME280;47664;51.660;-0.100;2023-03-03T01:18:35;102078.02;;;4.66;51.51
61761;BME280;47664;51.660;-0.100;2023-03-03T01:21:09;102078.73;;;4.22;51.26
61761;BME280;47664;51.660;-0.100;2023-03-03T01:23:41;102083.20;;;4.36;51.61
61761;BME280;47664;51.660;-0.100;2023-03-03T01:26:13;102085.99;;;4.57;51.64
61761;BME280;47664;51.660;-0.100;2023-03-03T01:28:45;102085.93;;;4.99;51.49
61761;BME280;47664;51.660;-0.100;2023-03-03T01:31:17;102087.27;;;4.59;51.41
61761;BME280;47664;51.660;-0.100;2023-03-03T01:33:50;102086.99;;;5.08;51.30
61761;BME280;47664;51.660;-0.100;2023-03-03T01:36:22;102087.04;;;4.74;51.63
61761;BME280;47664;51.660;-0.100;2023-03-03T01:38:54;102086.31;;;4.95;51.70
61761;BME280;47664;51.660;-0.100;2023-03-03T01:41:27;102088.75;;;4.98;51.31
61761;BME280;47664;51.660;-0.100;2023-03-03T01:43:59;102090.21;;;5.12;50.92
61761;BME280;47664;51.660;-0.100;2023-03-03T01:46:33;102090.19;;;5.15;51.24
61761;BME280;47664;51.660;-0.100;2023-03-03T01:49:05;102090.26;;;5.08;51.21
61761;BME280;47664;51.660;-0.100;2023-03-03T01:51:36;102089.52;;;5.07;51.18
61761;BME280;47664;51.660;-0.100;2023-03-03T01:54:12;102089.69;;;4.56;50.88
61761;BME280;47664;51.660;-0.100;2023-03-03T01:56:46;102090.45;;;5.21;50.53
61761;BME280;47664;51.660;-0.100;2023-03-03T01:59:17;102089.73;;;5.01;50.73
61761;BME280;47664;51.660;-0.100;2023-03-03T02:01:52;102088.38;;;5.06;50.46
61761;BME280;47664;51.660;-0.100;2023-03-03T02:04:25;102089.15;;;4.86;50.59
61761;BME280;47664;51.660;-0.100;2023-03-03T02:07:00;102085.84;;;5.12;50.69
61761;BME280;47664;51.660;-0.100;2023-03-03T02:09:34;102082.36;;;4.88;50.41
61761;BME280;47664;51.660;-0.100;2023-03-03T02:12:11;102083.23;;;4.26;50.84
61761;BME280;47664;51.660;-0.100;2023-03-03T02:14:44;102081.77;;;5.30;50.27
61761;BME280;47664;51.660;-0.100;2023-03-03T02:17:17;102081.06;;;4.93;50.50
61761;BME280;47664;51.660;-0.100;2023-03-03T02:19:52;102078.23;;;5.04;50.44
61761;BME280;47664;51.660;-0.100;2023-03-03T02:22:30;102079.33;;;5.28;50.38
61761;BME280;47664;51.660;-0.100;2023-03-03T02:25:05;102074.20;;;4.90;50.88
61761;BME280;47664;51.660;-0.100;2023-03-03T02:27:40;102075.19;;;5.14;50.75
61761;BME280;47664;51.660;-0.100;2023-03-03T02:30:18;102076.70;;;4.67;50.74
61761;BME280;47664;51.660;-0.100;2023-03-03T02:32:51;102080.05;;;4.96;50.72
61761;BME280;47664;51.660;-0.100;2023-03-03T02:35:27;102079.12;;;4.82;50.84
61761;BME280;47664;51.660;-0.100;2023-03-03T02:38:04;102079.44;;;5.10;50.42
61761;BME280;47664;51.660;-0.100;2023-03-03T02:40:36;102077.70;;;5.34;50.35
61761;BME280;47664;51.660;-0.100;2023-03-03T02:43:12;102078.81;;;4.60;50.23
61761;BME280;47664;51.660;-0.100;2023-03-03T02:45:48;102077.12;;;5.24;50.14
61761;BME280;47664;51.660;-0.100;2023-03-03T02:48:20;102079.37;;;5.00;50.18
61761;BME280;47664;51.660;-0.100;2023-03-03T02:50:52;102081.55;;;5.14;50.39
61761;BME280;47664;51.660;-0.100;2023-03-03T02:53:24;102082.48;;;4.75;50.18
61761;BME280;47664;51.660;-0.100;2023-03-03T02:55:57;102080.07;;;5.39;50.38
61761;BME280;47664;51.660;-0.100;2023-03-03T02:58:28;102080.88;;;5.18;50.45
61761;BME280;47664;51.660;-0.100;2023-03-03T03:01:01;102080.51;;;5.15;50.50
61761;BME280;47664;51.660;-0.100;2023-03-03T03:03:33;102078.97;;;5.15;50.42
61761;BME280;47664;51.660;-0.100;2023-03-03T03:06:05;102075.93;;;5.15;50.32
61761;BME280;47664;51.660;-0.100;2023-03-03T03:08:37;102077.13;;;5.04;50.32
61761;BME280;47664;51.660;-0.100;2023-03-03T03:11:10;102077.74;;;4.47;50.12
61761;BME280;47664;51.660;-0.100;2023-03-03T03:13:43;102078.26;;;5.07;50.15
61761;BME280;47664;51.660;-0.100;2023-03-03T03:16:14;102080.00;;;5.02;50.29
61761;BME280;47664;51.660;-0.100;2023-03-03T03:18:47;102081.11;;;5.18;50.44
61761;BME280;47664;51.660;-0.100;2023-03-03T03:21:20;102079.84;;;4.93;50.35
61761;BME280;47664;51.660;-0.100;2023-03-03T03:23:52;102078.84;;;5.02;50.06
61761;BME280;47664;51.660;-0.100;2023-03-03T03:26:24;102079.73;;;4.77;50.39
61761;BME280;47664;51.660;-0.100;2023-03-03T03:28:57;102079.87;;;5.07;50.71
61761;BME280;47664;51.660;-0.100;2023-03-03T03:31:29;102080.29;;;4.52;50.69
61761;BME280;47664;51.660;-0.100;2023-03-03T03:34:01;102081.54;;;4.86;50.69
61761;BME280;47664;51.660;-0.100;2023-03-03T03:36:33;102086.77;;;4.90;50.24
61761;BME280;47664;51.660;-0.100;2023-03-03T03:39:06;102088.46;;;4.54;49.76
61761;BME280;47664;51.660;-0.100;2023-03-03T03:41:38;102089.02;;;4.97;49.79
61761;BME280;47664;51.660;-0.100;2023-03-03T03:44:11;102093.21;;;4.40;49.93
61761;BME280;47664;51.660;-0.100;2023-03-03T03:46:43;102093.55;;;4.82;49.88
61761;BME280;47664;51.660;-0.100;2023-03-03T03:49:15;102093.55;;;4.91;49.45
61761;BME280;47664;51.660;-0.100;2023-03-03T03:51:47;102096.76;;;4.90;50.12
61761;BME280;47664;51.660;-0.100;2023-03-03T03:54:19;102098.66;;;4.93;49.99
61761;BME280;47664;51.660;-0.100;2023-03-03T03:56:51;102099.73;;;4.99;49.70
61761;BME280;47664;51.660;-0.100;2023-03-03T03:59:23;102100.06;;;4.95;49.68
61761;BME280;47664;51.660;-0.100;2023-03-03T04:01:55;102102.49;;;4.81;49.85
61761;BME280;47664;51.660;-0.100;2023-03-03T04:04:28;102103.01;;;4.55;49.88
61761;BME280;47664;51.660;-0.100;2023-03-03T04:07:00;102102.29;;;5.12;49.69
61761;BME280;47664;51.660;-0.100;2023-03-03T04:09:32;102099.21;;;4.77;49.83
61761;BME280;47664;51.660;-0.100;2023-03-03T04:12:04;102099.33;;;4.91;49.59
61761;BME280;47664;51.660;-0.100;2023-03-03T04:14:36;102101.08;;;4.84;49.78
61761;BME280;47664;51.660;-0.100;2023-03-03T04:17:09;102103.31;;;4.23;50.05
61761;BME280;47664;51.660;-0.100;2023-03-03T04:19:46;102105.24;;;4.68;50.02
61761;BME280;47664;51.660;-0.100;2023-03-03T04:22:18;102111.61;;;4.85;50.94
61761;BME280;47664;51.660;-0.100;2023-03-03T04:24:51;102109.92;;;4.79;51.26
61761;BME280;47664;51.660;-0.100;2023-03-03T04:27:23;102108.30;;;4.51;51.43
61761;BME280;47664;51.660;-0.100;2023-03-03T04:29:55;102107.60;;;5.10;51.11
61761;BME280;47664;51.660;-0.100;2023-03-03T04:32:27;102106.59;;;4.47;51.25
61761;BME280;47664;51.660;-0.100;2023-03-03T04:35:00;102109.72;;;4.70;51.89
61761;BME280;47664;51.660;-0.100;2023-03-03T04:37:32;102113.47;;;4.39;52.16
61761;BME280;47664;51.660;-0.100;2023-03-03T04:40:05;102107.77;;;4.36;52.84
61761;BME280;47664;51.660;-0.100;2023-03-03T04:42:39;102108.93;;;4.53;53.07
61761;BME280;47664;51.660;-0.100;2023-03-03T04:45:11;102109.14;;;3.87;52.38
61761;BME280;47664;51.660;-0.100;2023-03-03T04:47:44;102108.66;;;4.71;52.13
61761;BME280;47664;51.660;-0.100;2023-03-03T04:50:16;102111.55;;;4.34;51.83
61761;BME280;47664;51.660;-0.100;2023-03-03T04:52:48;102114.03;;;4.79;51.40
61761;BME280;47664;51.660;-0.100;2023-03-03T04:55:21;102112.37;;;4.70;51.21
61761;BME280;47664;51.660;-0.100;2023-03-03T04:57:53;102114.20;;;4.67;51.26
61761;BME280;47664;51.660;-0.100;2023-03-03T05:00:26;102114.04;;;4.71;51.25
61761;BME280;47664;51.660;-0.100;2023-03-03T05:02:58;102118.93;;;5.13;50.80
61761;BME280;47664;51.660;-0.100;2023-03-03T05:05:30;102116.49;;;5.00;50.73
61761;BME280;47664;51.660;-0.100;2023-03-03T05:08:03;102118.06;;;4.97;50.75
61761;BME280;47664;51.660;-0.100;2023-03-03T05:10:35;102116.69;;;4.92;50.85
61761;BME280;47664;51.660;-0.100;2023-03-03T05:13:07;102115.14;;;4.64;50.92
61761;BME280;47664;51.660;-0.100;2023-03-03T05:15:39;102118.53;;;5.07;51.09
61761;BME280;47664;51.660;-0.100;2023-03-03T05:18:11;102115.82;;;4.51;50.93
61761;BME280;47664;51.660;-0.100;2023-03-03T05:20:44;102115.98;;;4.90;51.00
61761;BME280;47664;51.660;-0.100;2023-03-03T05:23:16;102117.09;;;4.83;51.21
61761;BME280;47664;51.660;-0.100;2023-03-03T05:25:49;102119.91;;;5.38;51.18
61761;BME280;47664;51.660;-0.100;2023-03-03T05:28:22;102123.51;;;4.74;51.55
61761;BME280;47664;51.660;-0.100;2023-03-03T05:30:54;102120.92;;;5.05;51.36
61761;BME280;47664;51.660;-0.100;2023-03-03T05:33:26;102122.48;;;4.84;51.15
61761;BME280;47664;51.660;-0.100;2023-03-03T05:36:00;102120.08;;;4.93;51.07
61761;BME280;47664;51.660;-0.100;2023-03-03T05:38:32;102121.64;;;5.03;50.88
61761;BME280;47664;51.660;-0.100;2023-03-03T05:41:04;102121.81;;;4.85;50.97
61761;BME280;47664;51.660;-0.100;2023-03-03T05:43:37;102121.02;;;4.99;51.01
61761;BME280;47664;51.660;-0.100;2023-03-03T05:46:09;102120.35;;;4.88;50.91
61761;BME280;47664;51.660;-0.100;2023-03-03T05:48:42;102119.52;;;5.06;50.92
61761;BME280;47664;51.660;-0.100;2023-03-03T05:51:14;102119.28;;;4.47;51.14
61761;BME280;47664;51.660;-0.100;2023-03-03T05:53:46;102119.67;;;4.98;51.15
61761;BME280;47664;51.660;-0.100;2023-03-03T05:56:19;102116.21;;;4.59;51.03
61761;BME280;47664;51.660;-0.100;2023-03-03T05:58:51;102114.85;;;4.97;51.07
61761;BME280;47664;51.660;-0.100;2023-03-03T06:01:23;102118.14;;;5.02;50.91
61761;BME280;47664;51.660;-0.100;2023-03-03T06:03:55;102115.12;;;5.25;50.79
61761;BME280;47664;51.660;-0.100;2023-03-03T06:06:27;102115.17;;;5.17;50.97
61761;BME280;47664;51.660;-0.100;2023-03-03T06:08:59;102116.84;;;4.87;51.10
61761;BME280;47664;51.660;-0.100;2023-03-03T06:11:31;102115.97;;;5.01;50.90
61761;BME280;47664;51.660;-0.100;2023-03-03T06:14:04;102119.26;;;5.30;50.87
61761;BME280;47664;51.660;-0.100;2023-03-03T06:16:36;102122.08;;;5.38;50.79
61761;BME280;47664;51.660;-0.100;2023-03-03T06:19:08;102120.37;;;4.60;50.91
61761;BME280;47664;51.660;-0.100;2023-03-03T06:21:40;102121.92;;;4.97;51.10
61761;BME280;47664;51.660;-0.100;2023-03-03T06:24:13;102120.89;;;4.78;51.15
61761;BME280;47664;51.660;-0.100;2023-03-03T06:26:45;102124.07;;;4.97;51.19
61761;BME280;47664;51.660;-0.100;2023-03-03T06:29:17;102121.38;;;4.51;51.26
61761;BME280;47664;51.660;-0.100;2023-03-03T06:31:49;102123.48;;;5.06;51.11
61761;BME280;47664;51.660;-0.100;2023-03-03T06:34:22;102124.65;;;5.00;50.82
61761;BME280;47664;51.660;-0.100;2023-03-03T06:36:54;102122.14;;;4.97;50.83
61761;BME280;47664;51.660;-0.100;2023-03-03T06:39:26;102123.66;;;5.08;50.86
61761;BME280;47664;51.660;-0.100;2023-03-03T06:41:59;102125.05;;;5.14;50.90
61761;BME280;47664;51.660;-0.100;2023-03-03T06:44:30;102122.35;;;5.04;50.94
61761;BME280;47664;51.660;-0.100;2023-03-03T06:47:03;102123.14;;;5.47;50.61
61761;BME280;47664;51.660;-0.100;2023-03-03T06:49:35;102125.43;;;5.50;50.62
61761;BME280;47664;51.660;-0.100;2023-03-03T06:52:10;102128.86;;;5.03;50.67
61761;BME280;47664;51.660;-0.100;2023-03-03T06:54:43;102133.19;;;5.43;50.72
61761;BME280;47664;51.660;-0.100;2023-03-03T06:57:24;102134.69;;;5.19;50.87
61761;BME280;47664;51.660;-0.100;2023-03-03T07:00:00;102138.79;;;5.38;51.01
61761;BME280;47664;51.660;-0.100;2023-03-03T07:02:37;102144.68;;;5.33;51.09
61761;BME280;47664;51.660;-0.100;2023-03-03T07:05:09;102145.69;;;4.57;51.24
61761;BME280;47664;51.660;-0.100;2023-03-03T07:07:42;102150.64;;;5.53;51.33
61761;BME280;47664;51.660;-0.100;2023-03-03T07:10:21;102153.72;;;5.23;51.68
61761;BME280;47664;51.660;-0.100;2023-03-03T07:12:55;102152.74;;;5.11;52.02
61761;BME280;47664;51.660;-0.100;2023-03-03T07:15:30;102154.79;;;4.70;52.53
61761;BME280;47664;51.660;-0.100;2023-03-03T07:18:05;102153.12;;;5.05;52.33
61761;BME280;47664;51.660;-0.100;2023-03-03T07:20:43;102153.87;;;5.21;52.37
61761;BME280;47664;51.660;-0.100;2023-03-03T07:23:19;102155.12;;;4.76;52.36
61761;BME280;47664;51.660;-0.100;2023-03-03T07:25:52;102158.30;;;5.17;52.40
61761;BME280;47664;51.660;-0.100;2023-03-03T07:28:27;102159.97;;;4.90;52.62
61761;BME280;47664;51.660;-0.100;2023-03-03T07:31:00;102163.12;;;5.01;52.76
61761;BME280;47664;51.660;-0.100;2023-03-03T07:33:34;102168.15;;;5.16;52.69
61761;BME280;47664;51.660;-0.100;2023-03-03T07:36:20;102170.14;;;4.26;52.89
61761;BME280;47664;51.660;-0.100;2023-03-03T07:38:53;102172.78;;;5.13;53.02
61761;BME280;47664;51.660;-0.100;2023-03-03T07:41:25;102169.73;;;4.82;52.83
61761;BME280;47664;51.660;-0.100;2023-03-03T07:44:01;102168.66;;;5.22;52.13
61761;BME280;47664;51.660;-0.100;2023-03-03T07:46:35;102178.55;;;4.67;52.85
61761;BME280;47664;51.660;-0.100;2023-03-03T07:49:19;102175.53;;;4.35;52.80
61761;BME280;47664;51.660;-0.100;2023-03-03T07:51:53;102177.26;;;5.06;52.38
61761;BME280;47664;51.660;-0.100;2023-03-03T07:54:29;102178.61;;;4.86;52.60
61761;BME280;47664;51.660;-0.100;2023-03-03T07:57:06;102186.00;;;5.21;52.40
61761;BME280;47664;51.660;-0.100;2023-03-03T07:59:44;102189.23;;;5.09;52.23
61761;BME280;47664;51.660;-0.100;2023-03-03T08:02:31;102192.42;;;5.21;52.40
61761;BME280;47664;51.660;-0.100;2023-03-03T08:05:37;102199.64;;;4.78;52.47
61761;BME280;47664;51.660;-0.100;2023-03-03T08:08:28;102201.02;;;4.43;52.56
61761;BME280;47664;51.660;-0.100;2023-03-03T08:11:01;102202.33;;;5.10;52.14
61761;BME280;47664;51.660;-0.100;2023-03-03T08:13:36;102198.07;;;5.28;52.18
61761;BME280;47664;51.660;-0.100;2023-03-03T08:16:23;102202.07;;;4.75;51.63
61761;BME280;47664;51.660;-0.100;2023-03-03T08:18:57;102202.83;;;5.24;52.09
61761;BME280;47664;51.660;-0.100;2023-03-03T08:21:32;102209.24;;;4.97;52.60
61761;BME280;47664;51.660;-0.100;2023-03-03T08:24:05;102211.57;;;4.82;52.14
61761;BME280;47664;51.660;-0.100;2023-03-03T08:26:37;102213.09;;;5.00;52.35
61761;BME280;47664;51.660;-0.100;2023-03-03T08:29:09;102215.11;;;5.49;52.17
61761;BME280;47664;51.660;-0.100;2023-03-03T08:31:42;102217.50;;;5.26;52.03
61761;BME280;47664;51.660;-0.100;2023-03-03T08:34:14;102213.77;;;5.24;51.74
61761;BME280;47664;51.660;-0.100;2023-03-03T08:36:46;102213.58;;;5.46;51.40
61761;BME280;47664;51.660;-0.100;2023-03-03T08:39:18;102213.61;;;5.16;50.95
61761;BME280;47664;51.660;-0.100;2023-03-03T08:41:50;102213.89;;;5.65;50.77
61761;BME280;47664;51.660;-0.100;2023-03-03T08:44:23;102210.00;;;5.62;50.88
61761;BME280;47664;51.660;-0.100;2023-03-03T08:46:55;102208.63;;;5.41;51.11
61761;BME280;47664;51.660;-0.100;2023-03-03T08:49:27;102212.46;;;5.20;50.95
61761;BME280;47664;51.660;-0.100;2023-03-03T08:51:59;102206.09;;;5.49;51.03
61761;BME280;47664;51.660;-0.100;2023-03-03T08:54:32;102203.61;;;5.37;50.80
61761;BME280;47664;51.660;-0.100;2023-03-03T08:57:04;102204.92;;;5.84;50.47
61761;BME280;47664;51.660;-0.100;2023-03-03T08:59:36;102203.99;;;6.05;50.35
61761;BME280;47664;51.660;-0.100;2023-03-03T09:02:08;102202.58;;;5.63;50.42
61761;BME280;47664;51.660;-0.100;2023-03-03T09:04:40;102202.58;;;5.56;50.41
61761;BME280;47664;51.660;-0.100;2023-03-03T09:07:12;102203.77;;;5.45;50.66
61761;BME280;47664;51.660;-0.100;2023-03-03T09:09:44;102208.44;;;5.14;50.73
61761;BME280;47664;51.660;-0.100;2023-03-03T09:12:21;102211.19;;;5.18;50.08
61761;BME280;47664;51.660;-0.100;2023-03-03T09:14:57;102208.51;;;5.49;49.96
61761;BME280;47664;51.660;-0.100;2023-03-03T09:17:30;102210.26;;;5.68;50.02
61761;BME280;47664;51.660;-0.100;2023-03-03T09:20:29;102213.79;;;5.53;49.87
61761;BME280;47664;51.660;-0.100;2023-03-03T09:23:35;102212.09;;;5.94;49.26
61761;BME280;47664;51.660;-0.100;2023-03-03T09:26:22;102210.44;;;5.51;49.20
61761;BME280;47664;51.660;-0.100;2023-03-03T09:28:54;102213.11;;;5.75;49.12
61761;BME280;47664;51.660;-0.100;2023-03-03T09:31:31;102210.63;;;5.45;49.38
61761;BME280;47664;51.660;-0.100;2023-03-03T09:34:11;102213.97;;;5.25;48.86
61761;BME280;47664;51.660;-0.100;2023-03-03T09:36:47;102216.87;;;5.83;48.66
61761;BME280;47664;51.660;-0.100;2023-03-03T09:39:22;102213.85;;;5.45;48.19
61761;BME280;47664;51.660;-0.100;2023-03-03T09:42:40;102213.68;;;5.95;49.15
61761;BME280;47664;51.660;-0.100;2023-03-03T09:45:22;102213.12;;;5.66;48.76
61761;BME280;47664;51.660;-0.100;2023-03-03T09:48:24;102216.76;;;5.83;48.57
61761;BME280;47664;51.660;-0.100;2023-03-03T09:51:07;102218.17;;;5.94;48.07
61761;BME280;47664;51.660;-0.100;2023-03-03T09:53:53;102219.31;;;6.12;47.52
61761;BME280;47664;51.660;-0.100;2023-03-03T09:56:30;102221.80;;;5.81;47.66
61761;BME280;47664;51.660;-0.100;2023-03-03T09:59:11;102223.80;;;5.68;47.76
61761;BME280;47664;51.660;-0.100;2023-03-03T10:01:53;102226.38;;;6.09;47.59
61761;BME280;47664;51.660;-0.100;2023-03-03T10:04:41;102227.02;;;6.02;47.48
61761;BME280;47664;51.660;-0.100;2023-03-03T10:07:21;102229.45;;;5.79;46.98
61761;BME280;47664;51.660;-0.100;2023-03-03T10:10:05;102227.15;;;5.99;47.12
61761;BME280;47664;51.660;-0.100;2023-03-03T10:12:41;102230.55;;;5.82;46.75
61761;BME280;47664;51.660;-0.100;2023-03-03T10:15:24;102236.16;;;5.65;47.47
61761;BME280;47664;51.660;-0.100;2023-03-03T10:18:00;102236.46;;;6.06;46.32
61761;BME280;47664;51.660;-0.100;2023-03-03T10:20:37;102238.33;;;5.92;45.70
61761;BME280;47664;51.660;-0.100;2023-03-03T10:23:18;102237.97;;;5.72;45.58
61761;BME280;47664;51.660;-0.100;2023-03-03T10:25:54;102239.71;;;6.03;45.82
61761;BME280;47664;51.660;-0.100;2023-03-03T10:28:44;102242.33;;;5.65;46.03
61761;BME280;47664;51.660;-0.100;2023-03-03T10:31:28;102245.20;;;5.61;46.17
61761;BME280;47664;51.660;-0.100;2023-03-03T10:34:06;102246.58;;;6.28;45.86
61761;BME280;47664;51.660;-0.100;2023-03-03T10:36:45;102249.72;;;6.14;45.72
61761;BME280;47664;51.660;-0.100;2023-03-03T10:39:30;102253.93;;;5.83;45.27
61761;BME280;47664;51.660;-0.100;2023-03-03T10:42:13;102254.05;;;6.06;44.76
61761;BME280;47664;51.660;-0.100;2023-03-03T10:44:54;102258.86;;;6.36;44.37
61761;BME280;47664;51.660;-0.100;2023-03-03T10:47:37;102263.76;;;6.22;44.79
61761;BME280;47664;51.660;-0.100;2023-03-03T10:50:16;102262.56;;;5.43;45.62
61761;BME280;47664;51.660;-0.100;2023-03-03T10:52:55;102262.80;;;6.13;45.70
61761;BME280;47664;51.660;-0.100;2023-03-03T10:55:32;102262.78;;;6.01;46.14
61761;BME280;47664;51.660;-0.100;2023-03-03T10:58:17;102265.82;;;5.81;46.33
61761;BME280;47664;51.660;-0.100;2023-03-03T11:00:50;102261.50;;;6.18;45.81
61761;BME280;47664;51.660;-0.100;2023-03-03T11:03:54;102263.91;;;6.18;45.18
61761;BME280;47664;51.660;-0.100;2023-03-03T11:06:33;102265.20;;;6.10;45.63
61761;BME280;47664;51.660;-0.100;2023-03-03T11:09:15;102270.08;;;4.81;46.67
61761;BME280;47664;51.660;-0.100;2023-03-03T11:11:52;102268.72;;;6.17;46.24
61761;BME280;47664;51.660;-0.100;2023-03-03T11:14:30;102273.63;;;5.30;47.26
61761;BME280;47664;51.660;-0.100;2023-03-03T11:17:05;102271.61;;;5.73;46.95
61761;BME280;47664;51.660;-0.100;2023-03-03T11:19:50;102274.69;;;5.96;46.69
61761;BME280;47664;51.660;-0.100;2023-03-03T11:22:32;102278.01;;;5.43;47.47
61761;BME280;47664;51.660;-0.100;2023-03-03T11:25:11;102280.17;;;5.12;47.09
61761;BME280;47664;51.660;-0.100;2023-03-03T11:27:59;102277.01;;;5.65;45.99
61761;BME280;47664;51.660;-0.100;2023-03-03T11:30:42;102277.42;;;5.73;45.94
61761;BME280;47664;51.660;-0.100;2023-03-03T11:33:18;102275.69;;;5.25;46.23
61761;BME280;47664;51.660;-0.100;2023-03-03T11:35:50;102280.50;;;5.55;47.65
61761;BME280;47664;51.660;-0.100;2023-03-03T11:38:33;102280.64;;;5.13;48.66
61761;BME280;47664;51.660;-0.100;2023-03-03T11:41:14;102280.19;;;4.76;48.50
61761;BME280;47664;51.660;-0.100;2023-03-03T11:43:54;102285.72;;;4.81;49.08
61761;BME280;47664;51.660;-0.100;2023-03-03T11:46:33;102282.12;;;5.23;47.90
61761;BME280;47664;51.660;-0.100;2023-03-03T11:49:11;102278.08;;;5.09;46.61
61761;BME280;47664;51.660;-0.100;2023-03-03T11:51:49;102277.92;;;5.81;46.28
61761;BME280;47664;51.660;-0.100;2023-03-03T11:54:22;102280.34;;;5.69;46.90
61761;BME280;47664;51.660;-0.100;2023-03-03T11:57:00;102274.28;;;5.60;47.09
61761;BME280;47664;51.660;-0.100;2023-03-03T11:59:43;102268.00;;;5.92;46.96
61761;BME280;47664;51.660;-0.100;2023-03-03T12:02:26;102276.55;;;5.00;48.69
61761;BME280;47664;51.660;-0.100;2023-03-03T12:05:05;102272.20;;;5.06;49.52
61761;BME280;47664;51.660;-0.100;2023-03-03T12:07:41;102275.14;;;5.52;48.75
61761;BME280;47664;51.660;-0.100;2023-03-03T12:10:19;102272.26;;;4.97;48.47
61761;BME280;47664;51.660;-0.100;2023-03-03T12:12:53;102272.47;;;5.47;47.88
61761;BME280;47664;51.660;-0.100;2023-03-03T12:15:30;102270.12;;;5.62;47.61
61761;BME280;47664;51.660;-0.100;2023-03-03T12:18:14;102266.59;;;5.63;47.23
61761;BME280;47664;51.660;-0.100;2023-03-03T12:20:50;102267.39;;;5.58;48.22
61761;BME280;47664;51.660;-0.100;2023-03-03T12:23:40;102266.38;;;5.45;48.31
61761;BME280;47664;51.660;-0.100;2023-03-03T12:26:18;102263.29;;;5.39;48.39
61761;BME280;47664;51.660;-0.100;2023-03-03T12:28:51;102259.03;;;5.52;49.11
61761;BME280;47664;51.660;-0.100;2023-03-03T12:31:27;102253.16;;;5.61;48.46
61761;BME280;47664;51.660;-0.100;2023-03-03T12:34:04;102247.46;;;5.70;47.70
61761;BME280;47664;51.660;-0.100;2023-03-03T12:36:44;102247.86;;;6.09;47.44
61761;BME280;47664;51.660;-0.100;2023-03-03T12:39:22;102246.41;;;5.79;47.47
61761;BME280;47664;51.660;-0.100;2023-03-03T12:42:02;102244.28;;;6.10;47.30
61761;BME280;47664;51.660;-0.100;2023-03-03T12:44:40;102245.53;;;5.92;48.38
61761;BME280;47664;51.660;-0.100;2023-03-03T12:47:14;102243.94;;;5.94;48.08
61761;BME280;47664;51.660;-0.100;2023-03-03T12:49:52;102247.00;;;5.86;47.98
61761;BME280;47664;51.660;-0.100;2023-03-03T12:52:29;102245.80;;;6.08;47.79
61761;BME280;47664;51.660;-0.100;2023-03-03T12:55:08;102244.22;;;5.86;47.67
61761;BME280;47664;51.660;-0.100;2023-03-03T12:57:42;102243.08;;;6.58;47.58
61761;BME280;47664;51.660;-0.100;2023-03-03T13:00:22;102245.00;;;5.39;47.75
61761;BME280;47664;51.660;-0.100;2023-03-03T13:02:59;102242.11;;;6.33;47.30
61761;BME280;47664;51.660;-0.100;2023-03-03T13:05:34;102241.36;;;6.31;47.11
61761;BME280;47664;51.660;-0.100;2023-03-03T13:08:20;102243.69;;;5.89;47.65
61761;BME280;47664;51.660;-0.100;2023-03-03T13:10:54;102244.55;;;6.64;47.30
61761;BME280;47664;51.660;-0.100;2023-03-03T13:13:26;102244.11;;;6.68;47.43
61761;BME280;47664;51.660;-0.100;2023-03-03T13:16:01;102241.51;;;6.52;47.86
61761;BME280;47664;51.660;-0.100;2023-03-03T13:18:44;102240.53;;;6.58;48.19
61761;BME280;47664;51.660;-0.100;2023-03-03T13:21:20;102239.70;;;6.32;49.29
61761;BME280;47664;51.660;-0.100;2023-03-03T13:23:57;102242.46;;;6.24;49.93
61761;BME280;47664;51.660;-0.100;2023-03-03T13:26:35;102240.47;;;6.51;49.38
61761;BME280;47664;51.660;-0.100;2023-03-03T13:29:11;102244.99;;;5.78;49.92
61761;BME280;47664;51.660;-0.100;2023-03-03T13:31:45;102242.86;;;5.95;49.53
61761;BME280;47664;51.660;-0.100;2023-03-03T13:34:22;102240.87;;;6.22;48.90